Terminal Aerodrome Forecast
Issued by NWS Jackson, MS

Home | Current Version | Previous Version | Text Only | Print | Product List | Glossary On
Versions: 1 2 3 4 5 6 7 8 9 10 11 12 13 14 15 16 17 18 19
000
FTUS44 KJAN 311000 AAB
TAFGWO
TAF AMD
KGWO 311011Z 3110/0106 18007KT P6SM VCSH BKN025
     FM311500 20011KT P6SM VCSH BKN025
     FM311730 21011KT P6SM VCSH SCT040
     FM010000 18005KT P6SM SKC=

USA.gov is the U.S. government's official web portal to all federal, state and local government web resources and services.